フィラデルフィア の空港の天気 - METARとTAF

フィラデルフィア国際空港 ( KPHL / PHL ) - アメリカ ペンシルバニア州フィラデルフィア
飛行場実況気象(Metar)
観測時間02/05 14:54 EST (02/05 19:54 UTC)
風向・風速南南西 6m/s
視程10km以上
天気現象
全天を覆う雲 雲底高度 5490m
気温10.6℃
湿度32%
気圧1018.7hPa
METARKPHL 051954Z 21012KT 10SM OVC180 11/M06 A3008 RMK AO2 SLP187 T01061056
過去の天気等 Google飛行場航空写真 Wunderground天気予報

過去48時間のMETAR

飛行場予報(TAF)
発表時間: 2/05 14:16 EST (2/05 19:16 UTC)
予報対象時間: 5日14時 EST ~ 6日19時 EST
風向・風速南西 7m/s
視程10km以上
全天の8割程度の雲 雲底高度 7620m
6日1時 EST から
風向・風速西南西 3m/s
視程10km以上
全天の4割程度の雲 雲底高度 1520m
全天の8割程度の雲 雲底高度 3050m
6日9時 EST から
風向・風速北 6m/s 瞬間風速 10m/s
視程10km以上
全天の4割程度の雲 雲底高度 1520m
KPHL 051916Z 0519/0624 22014KT P6SM BKN250
FM060600 25005KT P6SM SCT050 BKN100
FM061400 35012G20KT P6SM SCT050